createdAt,value
2023-03-13T00:02:15.355Z,66.80
2023-03-13T00:10:21.084Z,66.90
2023-03-13T00:18:28.986Z,67.00
2023-03-13T00:26:34.406Z,66.80
2023-03-13T00:34:42.352Z,66.70
2023-03-13T00:42:47.638Z,66.60
2023-03-13T00:50:55.795Z,66.40
2023-03-13T00:59:03.580Z,67.70
2023-03-13T01:07:11.540Z,68.00
2023-03-13T01:15:19.803Z,67.70
2023-03-13T01:23:29.725Z,68.10
2023-03-13T01:31:37.409Z,68.10
2023-03-13T01:39:48.219Z,68.00
2023-03-13T01:47:53.932Z,67.10
2023-03-13T01:56:18.522Z,67.90
2023-03-13T02:04:26.562Z,68.20
2023-03-13T02:12:37.562Z,68.30
2023-03-13T02:20:43.818Z,69.10
2023-03-13T02:28:51.832Z,69.40
2023-03-13T02:36:59.398Z,70.60
2023-03-13T02:45:08.998Z,70.60
2023-03-13T02:53:14.531Z,70.30
2023-03-13T03:01:22.562Z,72.80
2023-03-13T03:09:28.464Z,72.30
2023-03-13T03:17:41.511Z,72.00
2023-03-13T03:25:47.976Z,73.00
2023-03-13T03:33:56.236Z,73.00
2023-03-13T03:42:01.812Z,73.10
2023-03-13T03:50:11.271Z,72.30
2023-03-13T03:58:25.532Z,72.20
2023-03-13T04:06:43.083Z,72.40
2023-03-13T04:14:49.776Z,72.60
2023-03-13T04:22:57.940Z,72.70
2023-03-13T04:31:03.627Z,74.50
2023-03-13T04:39:32.934Z,74.60
2023-03-13T04:47:57.135Z,76.10
2023-03-13T04:56:42.846Z,75.80
2023-03-13T05:05:09.750Z,74.70
2023-03-13T05:13:36.515Z,75.90
2023-03-13T05:22:11.021Z,76.20
2023-03-13T05:30:28.031Z,77.30
2023-03-13T05:38:53.676Z,75.80
2023-03-13T05:47:17.451Z,74.10
2023-03-13T05:55:41.239Z,72.20
2023-03-13T06:04:01.783Z,71.50
2023-03-13T06:12:10.436Z,69.30
2023-03-13T06:20:19.282Z,69.70
2023-03-13T06:28:24.751Z,70.10
2023-03-13T06:36:33.081Z,69.10
2023-03-13T06:44:38.603Z,67.20
2023-03-13T06:52:46.653Z,64.40
2023-03-13T07:00:52.012Z,65.20
2023-03-13T07:08:59.984Z,64.20
2023-03-13T07:17:05.487Z,62.80
2023-03-13T07:25:14.020Z,61.60
2023-03-13T07:33:19.524Z,62.00
2023-03-13T07:41:27.560Z,61.40
2023-03-13T07:49:39.485Z,59.10
2023-03-13T07:57:47.561Z,55.90
2023-03-13T08:06:02.022Z,57.30
2023-03-13T08:14:10.965Z,55.40
2023-03-13T08:22:16.503Z,55.30
2023-03-13T08:30:24.827Z,55.70
2023-03-13T08:38:30.294Z,55.50
2023-03-13T08:46:39.889Z,54.60
2023-03-13T08:54:45.575Z,53.70
2023-03-13T09:02:53.508Z,54.80
2023-03-13T09:11:00.104Z,53.90
2023-03-13T09:19:09.713Z,52.00
2023-03-13T09:27:15.311Z,52.40
2023-03-13T09:35:23.492Z,51.50
2023-03-13T09:43:39.109Z,51.00
2023-03-13T09:51:51.922Z,49.20
2023-03-13T10:00:02.020Z,47.30
2023-03-13T10:08:19.351Z,41.30
2023-03-13T10:16:28.522Z,32.90
2023-03-13T10:24:41.165Z,28.40
2023-03-13T10:32:46.971Z,26.70
2023-03-13T10:41:00.535Z,26.20
2023-03-13T10:49:07.723Z,25.00
2023-03-13T10:57:34.033Z,24.80
2023-03-13T11:05:45.547Z,24.20
2023-03-13T11:13:53.654Z,23.60
2023-03-13T11:22:10.405Z,24.60
2023-03-13T11:30:27.300Z,23.80
2023-03-13T11:38:38.270Z,22.90
2023-03-13T11:46:55.673Z,23.40
2023-03-13T11:55:35.741Z,22.70
2023-03-13T12:03:49.709Z,25.70
2023-03-13T12:12:03.750Z,29.30
2023-03-13T12:20:22.890Z,34.30
2023-03-13T12:28:38.174Z,35.20
2023-03-13T12:36:51.724Z,37.30
2023-03-13T12:44:57.743Z,38.10
2023-03-13T12:53:32.573Z,40.00
2023-03-13T13:01:43.132Z,42.00
2023-03-13T13:10:26.640Z,41.60
2023-03-13T13:18:36.548Z,42.00
2023-03-13T13:26:50.000Z,42.30
2023-03-13T13:35:06.479Z,41.70
2023-03-13T13:43:25.854Z,41.50
2023-03-13T13:51:34.898Z,42.50
2023-03-13T13:59:45.773Z,42.10
2023-03-13T14:08:02.049Z,41.80
2023-03-13T14:16:25.150Z,41.90
2023-03-13T14:24:33.097Z,41.40
2023-03-13T14:32:38.875Z,41.80
2023-03-13T14:40:47.069Z,42.40
2023-03-13T14:48:52.462Z,44.40
2023-03-13T14:57:21.402Z,45.40
2023-03-13T15:05:36.982Z,45.10
2023-03-13T15:13:46.156Z,45.40
2023-03-13T15:21:55.589Z,45.40
2023-03-13T15:30:03.539Z,46.40
2023-03-13T15:38:16.056Z,46.10
2023-03-13T15:46:24.372Z,46.30
2023-03-13T15:54:29.877Z,46.80
2023-03-13T16:02:38.203Z,47.80
2023-03-13T16:10:43.943Z,48.10
2023-03-13T16:18:53.382Z,48.30
2023-03-13T16:26:58.779Z,48.40
2023-03-13T16:35:06.992Z,48.10
2023-03-13T16:43:15.470Z,48.20
2023-03-13T16:51:25.257Z,48.20
2023-03-13T16:59:30.909Z,48.70
2023-03-13T17:07:42.865Z,49.10
2023-03-13T17:15:48.431Z,49.20
2023-03-13T17:23:56.999Z,49.70
2023-03-13T17:32:06.383Z,50.60
2023-03-13T17:40:19.972Z,51.50
2023-03-13T17:48:27.934Z,52.10
2023-03-13T17:56:39.363Z,52.90
2023-03-13T18:04:45.617Z,53.90
2023-03-13T18:12:54.836Z,54.30
2023-03-13T18:21:01.082Z,55.60
2023-03-13T18:29:20.608Z,55.80
2023-03-13T18:37:30.791Z,57.60
2023-03-13T18:45:39.678Z,58.30
2023-03-13T18:53:46.880Z,58.90
2023-03-13T19:01:55.611Z,58.50
2023-03-13T19:10:01.838Z,58.60
2023-03-13T19:18:13.247Z,58.60
2023-03-13T19:26:21.159Z,58.60
2023-03-13T19:34:29.201Z,58.60
2023-03-13T19:42:35.459Z,58.70
2023-03-13T19:50:43.670Z,58.70
2023-03-13T19:58:50.689Z,59.60
2023-03-13T20:06:58.783Z,59.50
2023-03-13T20:15:04.494Z,60.20
2023-03-13T20:23:12.947Z,60.70
2023-03-13T20:31:19.242Z,61.50
2023-03-13T20:39:28.621Z,62.00
2023-03-13T20:47:33.874Z,62.00
2023-03-13T20:55:43.507Z,62.20
2023-03-13T21:03:48.997Z,62.50
2023-03-13T21:11:57.072Z,62.20
2023-03-13T21:20:06.911Z,62.90
2023-03-13T21:28:14.907Z,62.70
2023-03-13T21:36:22.677Z,62.50
2023-03-13T21:44:30.853Z,63.40
2023-03-13T21:52:40.911Z,63.90
2023-03-13T22:00:49.546Z,64.20
2023-03-13T22:08:57.156Z,64.60
2023-03-13T22:17:08.964Z,65.00
2023-03-13T22:25:23.224Z,65.00
2023-03-13T22:33:32.442Z,65.00
2023-03-13T22:41:39.801Z,65.20
2023-03-13T22:49:48.158Z,66.40
2023-03-13T22:57:53.635Z,65.80
2023-03-13T23:06:01.664Z,65.40
2023-03-13T23:14:07.105Z,65.40
2023-03-13T23:22:18.203Z,65.70
2023-03-13T23:30:24.016Z,65.70
2023-03-13T23:38:32.098Z,65.70
2023-03-13T23:46:37.735Z,65.60
2023-03-13T23:54:45.818Z,66.10
